sensor_id;sensor_type;location;lat;lon;timestamp;pressure;altitude;pressure_sealevel;temperature;humidity
74578;BME280;75151;49.086;33.418;2024-02-21T00:00:33;101397.63;;;-3.64;54.05
74578;BME280;75151;49.086;33.418;2024-02-21T00:03:00;101392.69;;;-3.78;54.71
74578;BME280;75151;49.086;33.418;2024-02-21T00:05:28;101407.06;;;-3.96;54.92
74578;BME280;75151;49.086;33.418;2024-02-21T00:07:57;101388.66;;;-3.99;54.87
74578;BME280;75151;49.086;33.418;2024-02-21T00:10:24;101380.53;;;-3.58;54.79
74578;BME280;75151;49.086;33.418;2024-02-21T00:12:52;101389.66;;;-3.70;54.89
74578;BME280;75151;49.086;33.418;2024-02-21T00:15:18;101377.44;;;-3.73;54.83
74578;BME280;75151;49.086;33.418;2024-02-21T00:17:45;101369.84;;;-3.76;55.13
74578;BME280;75151;49.086;33.418;2024-02-21T00:20:12;101366.91;;;-4.15;56.06
74578;BME280;75151;49.086;33.418;2024-02-21T00:22:39;101367.44;;;-4.25;56.53
74578;BME280;75151;49.086;33.418;2024-02-21T00:25:07;101357.91;;;-3.98;55.80
74578;BME280;75151;49.086;33.418;2024-02-21T00:27:34;101366.97;;;-3.92;55.75
74578;BME280;75151;49.086;33.418;2024-02-21T00:30:02;101373.06;;;-3.97;56.30
74578;BME280;75151;49.086;33.418;2024-02-21T00:32:29;101368.31;;;-3.49;54.51
74578;BME280;75151;49.086;33.418;2024-02-21T00:34:56;101362.22;;;-3.56;54.64
74578;BME280;75151;49.086;33.418;2024-02-21T00:37:22;101361.84;;;-3.82;55.27
74578;BME280;75151;49.086;33.418;2024-02-21T00:39:49;101353.44;;;-4.15;56.46
74578;BME280;75151;49.086;33.418;2024-02-21T00:42:16;101345.63;;;-4.23;57.47
74578;BME280;75151;49.086;33.418;2024-02-21T00:44:43;101352.97;;;-4.12;55.78
74578;BME280;75151;49.086;33.418;2024-02-21T00:47:10;101347.50;;;-3.94;56.53
74578;BME280;75151;49.086;33.418;2024-02-21T00:49:37;101341.97;;;-3.99;56.01
74578;BME280;75151;49.086;33.418;2024-02-21T00:52:04;101349.75;;;-3.80;55.51
74578;BME280;75151;49.086;33.418;2024-02-21T00:54:31;101340.97;;;-3.75;56.32
74578;BME280;75151;49.086;33.418;2024-02-21T00:57:13;101336.16;;;-3.73;54.87
74578;BME280;75151;49.086;33.418;2024-02-21T00:59:39;101339.00;;;-4.09;56.49
74578;BME280;75151;49.086;33.418;2024-02-21T01:02:08;101333.91;;;-3.88;56.36
74578;BME280;75151;49.086;33.418;2024-02-21T01:04:35;101330.53;;;-3.83;56.41
74578;BME280;75151;49.086;33.418;2024-02-21T01:07:03;101327.81;;;-3.72;55.16
74578;BME280;75151;49.086;33.418;2024-02-21T01:09:30;101323.78;;;-4.04;56.26
74578;BME280;75151;49.086;33.418;2024-02-21T01:11:57;101333.94;;;-3.65;55.30
74578;BME280;75151;49.086;33.418;2024-02-21T01:14:23;101344.41;;;-4.09;56.52
74578;BME280;75151;49.086;33.418;2024-02-21T01:16:50;101339.19;;;-3.93;55.88
74578;BME280;75151;49.086;33.418;2024-02-21T01:19:17;101336.75;;;-3.60;55.19
74578;BME280;75151;49.086;33.418;2024-02-21T01:21:44;101328.25;;;-3.98;55.81
74578;BME280;75151;49.086;33.418;2024-02-21T01:24:11;101315.84;;;-3.87;57.07
74578;BME280;75151;49.086;33.418;2024-02-21T01:26:37;101314.34;;;-3.83;56.82
74578;BME280;75151;49.086;33.418;2024-02-21T01:29:04;101304.97;;;-3.58;56.01
74578;BME280;75151;49.086;33.418;2024-02-21T01:31:31;101303.78;;;-3.62;55.62
74578;BME280;75151;49.086;33.418;2024-02-21T01:33:58;101297.56;;;-3.97;57.24
74578;BME280;75151;49.086;33.418;2024-02-21T01:36:24;101294.50;;;-3.66;56.11
74578;BME280;75151;49.086;33.418;2024-02-21T01:38:51;101296.94;;;-3.29;54.78
74578;BME280;75151;49.086;33.418;2024-02-21T01:41:18;101305.63;;;-4.38;57.80
74578;BME280;75151;49.086;33.418;2024-02-21T01:43:45;101298.75;;;-4.22;56.04
74578;BME280;75151;49.086;33.418;2024-02-21T01:46:12;101298.28;;;-4.31;56.70
74578;BME280;75151;49.086;33.418;2024-02-21T01:48:38;101298.13;;;-3.60;56.22
74578;BME280;75151;49.086;33.418;2024-02-21T01:51:06;101299.31;;;-3.33;55.33
74578;BME280;75151;49.086;33.418;2024-02-21T01:53:35;101290.28;;;-3.50;55.39
74578;BME280;75151;49.086;33.418;2024-02-21T01:56:03;101290.75;;;-3.42;55.94
74578;BME280;75151;49.086;33.418;2024-02-21T01:58:33;101298.72;;;-3.70;54.46
74578;BME280;75151;49.086;33.418;2024-02-21T02:01:03;101296.03;;;-3.70;55.77
74578;BME280;75151;49.086;33.418;2024-02-21T02:03:31;101284.50;;;-4.11;55.36
74578;BME280;75151;49.086;33.418;2024-02-21T02:05:57;101297.44;;;-3.90;55.68
74578;BME280;75151;49.086;33.418;2024-02-21T02:08:24;101283.47;;;-3.99;54.99
74578;BME280;75151;49.086;33.418;2024-02-21T02:10:51;101291.44;;;-3.81;56.05
74578;BME280;75151;49.086;33.418;2024-02-21T02:13:18;101287.72;;;-4.62;57.13
74578;BME280;75151;49.086;33.418;2024-02-21T02:15:47;101290.16;;;-4.01;56.26
74578;BME280;75151;49.086;33.418;2024-02-21T02:18:15;101299.50;;;-4.45;56.14
74578;BME280;75151;49.086;33.418;2024-02-21T02:20:44;101288.16;;;-3.83;56.26
74578;BME280;75151;49.086;33.418;2024-02-21T02:25:50;101297.31;;;-4.37;56.35
74578;BME280;75151;49.086;33.418;2024-02-21T02:28:19;101290.88;;;-3.83;56.96
74578;BME280;75151;49.086;33.418;2024-02-21T02:30:46;101294.41;;;-4.23;56.97
74578;BME280;75151;49.086;33.418;2024-02-21T02:33:13;101279.19;;;-4.18;55.20
74578;BME280;75151;49.086;33.418;2024-02-21T02:35:40;101285.22;;;-4.34;56.71
74578;BME280;75151;49.086;33.418;2024-02-21T02:38:07;101282.69;;;-4.29;57.26
74578;BME280;75151;49.086;33.418;2024-02-21T02:40:34;101276.78;;;-4.08;56.29
74578;BME280;75151;49.086;33.418;2024-02-21T02:43:01;101284.91;;;-4.26;56.09
74578;BME280;75151;49.086;33.418;2024-02-21T02:45:28;101286.53;;;-4.66;57.88
74578;BME280;75151;49.086;33.418;2024-02-21T02:47:55;101273.63;;;-4.05;55.86
74578;BME280;75151;49.086;33.418;2024-02-21T02:50:24;101278.34;;;-4.30;56.80
74578;BME280;75151;49.086;33.418;2024-02-21T02:52:53;101275.59;;;-4.42;56.52
74578;BME280;75151;49.086;33.418;2024-02-21T02:55:20;101284.72;;;-4.54;57.61
74578;BME280;75151;49.086;33.418;2024-02-21T02:57:46;101283.47;;;-3.64;54.78
74578;BME280;75151;49.086;33.418;2024-02-21T03:00:14;101272.44;;;-4.09;55.12
74578;BME280;75151;49.086;33.418;2024-02-21T03:02:44;101270.22;;;-4.12;54.68
74578;BME280;75151;49.086;33.418;2024-02-21T03:05:17;101265.56;;;-3.70;55.07
74578;BME280;75151;49.086;33.418;2024-02-21T03:07:44;101274.78;;;-4.01;54.44
74578;BME280;75151;49.086;33.418;2024-02-21T03:10:12;101269.53;;;-3.84;55.09
74578;BME280;75151;49.086;33.418;2024-02-21T03:12:40;101274.88;;;-4.49;55.68
74578;BME280;75151;49.086;33.418;2024-02-21T03:15:07;101269.44;;;-3.78;55.69
74578;BME280;75151;49.086;33.418;2024-02-21T03:17:34;101270.69;;;-3.92;54.22
74578;BME280;75151;49.086;33.418;2024-02-21T03:20:02;101278.31;;;-4.12;55.67
74578;BME280;75151;49.086;33.418;2024-02-21T03:22:32;101271.50;;;-4.74;56.51
74578;BME280;75151;49.086;33.418;2024-02-21T03:24:59;101276.34;;;-4.64;56.65
74578;BME280;75151;49.086;33.418;2024-02-21T03:27:26;101268.47;;;-4.48;56.14
74578;BME280;75151;49.086;33.418;2024-02-21T03:29:53;101264.72;;;-3.82;53.36
74578;BME280;75151;49.086;33.418;2024-02-21T03:32:20;101263.66;;;-3.93;53.51
74578;BME280;75151;49.086;33.418;2024-02-21T03:34:47;101275.47;;;-4.47;54.15
74578;BME280;75151;49.086;33.418;2024-02-21T03:37:14;101263.19;;;-3.90;54.09
74578;BME280;75151;49.086;33.418;2024-02-21T03:39:41;101256.53;;;-4.40;54.41
74578;BME280;75151;49.086;33.418;2024-02-21T03:42:08;101264.94;;;-4.07;55.08
74578;BME280;75151;49.086;33.418;2024-02-21T03:44:35;101262.06;;;-4.23;55.09
74578;BME280;75151;49.086;33.418;2024-02-21T03:47:02;101263.63;;;-4.57;55.44
74578;BME280;75151;49.086;33.418;2024-02-21T03:49:29;101257.28;;;-4.63;56.15
74578;BME280;75151;49.086;33.418;2024-02-21T03:51:56;101256.38;;;-4.15;54.48
74578;BME280;75151;49.086;33.418;2024-02-21T03:54:23;101250.44;;;-4.36;53.83
74578;BME280;75151;49.086;33.418;2024-02-21T03:56:50;101254.06;;;-4.30;54.10
74578;BME280;75151;49.086;33.418;2024-02-21T03:59:16;101253.13;;;-4.77;54.81
74578;BME280;75151;49.086;33.418;2024-02-21T04:01:43;101267.13;;;-4.86;54.12
74578;BME280;75151;49.086;33.418;2024-02-21T04:04:10;101268.63;;;-4.90;55.20
74578;BME280;75151;49.086;33.418;2024-02-21T04:06:49;101268.81;;;-4.85;53.79
74578;BME280;75151;49.086;33.418;2024-02-21T04:09:16;101266.28;;;-4.28;53.01
74578;BME280;75151;49.086;33.418;2024-02-21T04:11:43;101270.94;;;-4.46;54.02
74578;BME280;75151;49.086;33.418;2024-02-21T04:14:10;101271.78;;;-4.93;55.00
74578;BME280;75151;49.086;33.418;2024-02-21T04:16:40;101259.22;;;-4.70;55.15
74578;BME280;75151;49.086;33.418;2024-02-21T04:19:07;101262.31;;;-5.14;54.86
74578;BME280;75151;49.086;33.418;2024-02-21T04:21:34;101256.25;;;-4.09;54.00
74578;BME280;75151;49.086;33.418;2024-02-21T04:24:01;101258.16;;;-3.75;53.68
74578;BME280;75151;49.086;33.418;2024-02-21T04:26:30;101258.25;;;-4.57;54.73
74578;BME280;75151;49.086;33.418;2024-02-21T04:28:57;101249.22;;;-4.63;55.13
74578;BME280;75151;49.086;33.418;2024-02-21T04:31:24;101255.34;;;-4.44;55.22
74578;BME280;75151;49.086;33.418;2024-02-21T04:33:51;101254.44;;;-4.97;55.64
74578;BME280;75151;49.086;33.418;2024-02-21T04:36:18;101249.09;;;-4.56;56.08
74578;BME280;75151;49.086;33.418;2024-02-21T04:38:45;101246.34;;;-4.68;55.53
74578;BME280;75151;49.086;33.418;2024-02-21T04:41:12;101249.91;;;-5.15;56.11
74578;BME280;75151;49.086;33.418;2024-02-21T04:43:39;101257.44;;;-4.05;56.70
74578;BME280;75151;49.086;33.418;2024-02-21T04:46:05;101244.38;;;-5.20;58.44
74578;BME280;75151;49.086;33.418;2024-02-21T04:48:32;101258.72;;;-5.62;59.19
74578;BME280;75151;49.086;33.418;2024-02-21T04:50:59;101246.66;;;-4.87;59.18
74578;BME280;75151;49.086;33.418;2024-02-21T04:53:26;101252.63;;;-4.85;59.56
74578;BME280;75151;49.086;33.418;2024-02-21T04:55:53;101263.78;;;-4.82;59.25
74578;BME280;75151;49.086;33.418;2024-02-21T04:58:20;101248.44;;;-5.29;61.51
74578;BME280;75151;49.086;33.418;2024-02-21T05:00:46;101257.97;;;-5.15;60.92
74578;BME280;75151;49.086;33.418;2024-02-21T05:03:13;101263.53;;;-5.28;61.63
74578;BME280;75151;49.086;33.418;2024-02-21T05:05:40;101255.94;;;-3.66;74.61
74578;BME280;75151;49.086;33.418;2024-02-21T05:08:07;101268.47;;;-3.72;64.21
74578;BME280;75151;49.086;33.418;2024-02-21T05:10:34;101276.09;;;-3.80;61.25
74578;BME280;75151;49.086;33.418;2024-02-21T05:13:01;101277.50;;;-4.42;59.75
74578;BME280;75151;49.086;33.418;2024-02-21T05:15:28;101268.88;;;-4.21;59.47
74578;BME280;75151;49.086;33.418;2024-02-21T05:17:55;101270.47;;;-5.02;60.94
74578;BME280;75151;49.086;33.418;2024-02-21T05:20:22;101272.13;;;-4.42;60.97
74578;BME280;75151;49.086;33.418;2024-02-21T05:22:49;101272.19;;;-4.49;59.47
74578;BME280;75151;49.086;33.418;2024-02-21T05:25:16;101284.91;;;-4.97;61.54
74578;BME280;75151;49.086;33.418;2024-02-21T05:27:42;101281.19;;;-4.84;61.42
74578;BME280;75151;49.086;33.418;2024-02-21T05:30:10;101276.41;;;-4.53;60.29
74578;BME280;75151;49.086;33.418;2024-02-21T05:32:37;101278.31;;;-4.42;61.36
74578;BME280;75151;49.086;33.418;2024-02-21T05:35:04;101282.63;;;-4.82;60.35
74578;BME280;75151;49.086;33.418;2024-02-21T05:37:31;101284.72;;;-4.54;60.05
74578;BME280;75151;49.086;33.418;2024-02-21T05:39:57;101285.81;;;-4.32;60.88
74578;BME280;75151;49.086;33.418;2024-02-21T05:42:24;101269.66;;;-3.91;59.38
74578;BME280;75151;49.086;33.418;2024-02-21T05:44:51;101264.09;;;-4.07;59.31
74578;BME280;75151;49.086;33.418;2024-02-21T05:47:18;101280.47;;;-4.62;61.10
74578;BME280;75151;49.086;33.418;2024-02-21T05:49:47;101291.59;;;-4.88;61.38
74578;BME280;75151;49.086;33.418;2024-02-21T05:52:14;101288.84;;;-4.52;61.23
74578;BME280;75151;49.086;33.418;2024-02-21T05:54:42;101278.97;;;-4.58;62.49
74578;BME280;75151;49.086;33.418;2024-02-21T05:57:08;101277.22;;;-4.52;59.90
74578;BME280;75151;49.086;33.418;2024-02-21T05:59:37;101280.22;;;-4.31;60.79
74578;BME280;75151;49.086;33.418;2024-02-21T06:02:06;101283.72;;;-4.30;60.75
74578;BME280;75151;49.086;33.418;2024-02-21T06:04:35;101290.22;;;-4.49;60.32
74578;BME280;75151;49.086;33.418;2024-02-21T06:07:02;101283.13;;;-3.79;59.65
74578;BME280;75151;49.086;33.418;2024-02-21T06:09:29;101289.00;;;-3.71;58.69
74578;BME280;75151;49.086;33.418;2024-02-21T06:11:56;101281.00;;;-4.42;60.05
74578;BME280;75151;49.086;33.418;2024-02-21T06:14:22;101286.41;;;-4.30;61.44
74578;BME280;75151;49.086;33.418;2024-02-21T06:16:49;101291.00;;;-4.31;61.50
74578;BME280;75151;49.086;33.418;2024-02-21T06:19:16;101295.72;;;-4.56;61.21
74578;BME280;75151;49.086;33.418;2024-02-21T06:21:43;101301.44;;;-4.22;61.05
74578;BME280;75151;49.086;33.418;2024-02-21T06:24:11;101297.56;;;-4.38;60.83
74578;BME280;75151;49.086;33.418;2024-02-21T06:26:40;101293.09;;;-4.03;60.37
74578;BME280;75151;49.086;33.418;2024-02-21T06:29:07;101292.84;;;-4.01;60.27
74578;BME280;75151;49.086;33.418;2024-02-21T06:31:35;101291.13;;;-4.67;61.99
74578;BME280;75151;49.086;33.418;2024-02-21T06:34:02;101293.19;;;-4.09;61.28
74578;BME280;75151;49.086;33.418;2024-02-21T06:36:29;101292.44;;;-4.87;61.07
74578;BME280;75151;49.086;33.418;2024-02-21T06:38:56;101294.00;;;-4.80;62.09
74578;BME280;75151;49.086;33.418;2024-02-21T06:41:23;101297.75;;;-4.40;61.50
74578;BME280;75151;49.086;33.418;2024-02-21T06:43:50;101284.53;;;-4.41;61.95
74578;BME280;75151;49.086;33.418;2024-02-21T06:46:27;101304.13;;;-4.22;60.16
74578;BME280;75151;49.086;33.418;2024-02-21T06:48:58;101306.72;;;-4.28;60.03
74578;BME280;75151;49.086;33.418;2024-02-21T06:51:25;101303.88;;;-4.03;59.91
74578;BME280;75151;49.086;33.418;2024-02-21T06:53:52;101295.97;;;-4.57;61.87
74578;BME280;75151;49.086;33.418;2024-02-21T06:56:19;101304.28;;;-4.47;61.07
74578;BME280;75151;49.086;33.418;2024-02-21T06:58:46;101291.00;;;-4.19;59.99
74578;BME280;75151;49.086;33.418;2024-02-21T07:01:13;101292.28;;;-4.33;61.68
74578;BME280;75151;49.086;33.418;2024-02-21T07:03:40;101294.72;;;-4.73;61.04
74578;BME280;75151;49.086;33.418;2024-02-21T07:06:07;101288.72;;;-4.15;60.61
74578;BME280;75151;49.086;33.418;2024-02-21T07:08:34;101296.13;;;-3.99;59.89
74578;BME280;75151;49.086;33.418;2024-02-21T07:11:01;101299.03;;;-4.54;60.49
74578;BME280;75151;49.086;33.418;2024-02-21T07:13:28;101285.22;;;-4.46;60.65
74578;BME280;75151;49.086;33.418;2024-02-21T07:15:55;101287.72;;;-4.62;60.76
74578;BME280;75151;49.086;33.418;2024-02-21T07:18:21;101287.22;;;-4.41;60.01
74578;BME280;75151;49.086;33.418;2024-02-21T07:20:48;101286.63;;;-4.43;59.94
74578;BME280;75151;49.086;33.418;2024-02-21T07:23:15;101290.84;;;-4.36;61.15
74578;BME280;75151;49.086;33.418;2024-02-21T07:25:42;101282.28;;;-4.03;61.19
74578;BME280;75151;49.086;33.418;2024-02-21T07:28:09;101285.97;;;-3.74;60.33
74578;BME280;75151;49.086;33.418;2024-02-21T07:30:36;101285.81;;;-4.14;59.05
74578;BME280;75151;49.086;33.418;2024-02-21T07:33:03;101293.56;;;-3.48;59.12
74578;BME280;75151;49.086;33.418;2024-02-21T07:35:30;101294.47;;;-4.42;59.46
74578;BME280;75151;49.086;33.418;2024-02-21T07:37:57;101291.94;;;-4.37;59.90
74578;BME280;75151;49.086;33.418;2024-02-21T07:40:23;101298.31;;;-4.19;59.31
74578;BME280;75151;49.086;33.418;2024-02-21T07:42:50;101290.97;;;-4.01;59.63
74578;BME280;75151;49.086;33.418;2024-02-21T07:45:18;101291.78;;;-4.12;59.98
74578;BME280;75151;49.086;33.418;2024-02-21T07:47:50;101283.94;;;-3.44;59.23
74578;BME280;75151;49.086;33.418;2024-02-21T07:50:17;101294.47;;;-4.42;60.56
74578;BME280;75151;49.086;33.418;2024-02-21T07:52:44;101301.59;;;-4.17;59.82
74578;BME280;75151;49.086;33.418;2024-02-21T07:55:11;101307.91;;;-4.23;60.14
74578;BME280;75151;49.086;33.418;2024-02-21T07:57:38;101319.78;;;-4.13;59.77
74578;BME280;75151;49.086;33.418;2024-02-21T08:00:05;101314.91;;;-3.70;58.75
74578;BME280;75151;49.086;33.418;2024-02-21T08:02:32;101311.63;;;-3.60;57.97
74578;BME280;75151;49.086;33.418;2024-02-21T08:04:59;101318.91;;;-3.26;56.76
74578;BME280;75151;49.086;33.418;2024-02-21T08:07:26;101321.28;;;-4.17;59.39
74578;BME280;75151;49.086;33.418;2024-02-21T08:09:56;101325.94;;;-3.83;58.90
74578;BME280;75151;49.086;33.418;2024-02-21T08:12:23;101315.50;;;-3.79;58.33
74578;BME280;75151;49.086;33.418;2024-02-21T08:14:50;101315.13;;;-3.94;57.82
74578;BME280;75151;49.086;33.418;2024-02-21T08:17:16;101316.66;;;-3.75;58.87
74578;BME280;75151;49.086;33.418;2024-02-21T08:19:43;101312.06;;;-4.09;59.45
74578;BME280;75151;49.086;33.418;2024-02-21T08:22:10;101304.00;;;-3.86;57.50
74578;BME280;75151;49.086;33.418;2024-02-21T08:24:37;101298.13;;;-3.72;59.43
74578;BME280;75151;49.086;33.418;2024-02-21T08:27:04;101305.13;;;-3.13;57.13
74578;BME280;75151;49.086;33.418;2024-02-21T08:29:31;101317.16;;;-3.44;56.96
74578;BME280;75151;49.086;33.418;2024-02-21T08:31:58;101309.06;;;-3.67;59.38
74578;BME280;75151;49.086;33.418;2024-02-21T08:34:25;101299.28;;;-4.14;58.13
74578;BME280;75151;49.086;33.418;2024-02-21T08:36:52;101326.31;;;-3.33;56.87
74578;BME280;75151;49.086;33.418;2024-02-21T08:39:19;101307.09;;;-2.85;56.63
74578;BME280;75151;49.086;33.418;2024-02-21T08:41:45;101312.69;;;-3.73;58.11
74578;BME280;75151;49.086;33.418;2024-02-21T08:44:23;101310.69;;;-3.19;56.93
74578;BME280;75151;49.086;33.418;2024-02-21T08:46:53;101303.06;;;-2.83;55.83
74578;BME280;75151;49.086;33.418;2024-02-21T08:49:20;101309.38;;;-2.38;54.85
74578;BME280;75151;49.086;33.418;2024-02-21T08:51:47;101308.56;;;-3.06;55.56
74578;BME280;75151;49.086;33.418;2024-02-21T08:54:15;101304.09;;;-2.72;56.33
74578;BME280;75151;49.086;33.418;2024-02-21T08:56:41;101307.75;;;-3.29;55.96
74578;BME280;75151;49.086;33.418;2024-02-21T08:59:08;101315.75;;;-2.72;55.23
74578;BME280;75151;49.086;33.418;2024-02-21T09:01:35;101319.00;;;-3.09;57.27
74578;BME280;75151;49.086;33.418;2024-02-21T09:04:03;101307.06;;;-3.37;58.20
74578;BME280;75151;49.086;33.418;2024-02-21T09:06:30;101306.72;;;-3.28;57.05
74578;BME280;75151;49.086;33.418;2024-02-21T09:08:57;101314.16;;;-2.68;55.62
74578;BME280;75151;49.086;33.418;2024-02-21T09:11:27;101310.28;;;-2.60;55.91
74578;BME280;75151;49.086;33.418;2024-02-21T09:13:55;101313.41;;;-3.31;56.45
74578;BME280;75151;49.086;33.418;2024-02-21T09:16:22;101311.81;;;-2.92;56.10
74578;BME280;75151;49.086;33.418;2024-02-21T09:18:50;101314.09;;;-3.36;56.78
74578;BME280;75151;49.086;33.418;2024-02-21T09:21:17;101309.94;;;-2.64;57.39
74578;BME280;75151;49.086;33.418;2024-02-21T09:23:45;101316.72;;;-2.89;57.54
74578;BME280;75151;49.086;33.418;2024-02-21T09:26:12;101316.25;;;-2.30;55.56
74578;BME280;75151;49.086;33.418;2024-02-21T09:28:43;101313.28;;;-3.59;58.28
74578;BME280;75151;49.086;33.418;2024-02-21T09:31:13;101303.78;;;-3.39;59.44
74578;BME280;75151;49.086;33.418;2024-02-21T09:33:40;101316.53;;;-2.71;57.43
74578;BME280;75151;49.086;33.418;2024-02-21T09:36:08;101310.00;;;-2.47;56.51
74578;BME280;75151;49.086;33.418;2024-02-21T09:38:35;101314.88;;;-2.61;55.44
74578;BME280;75151;49.086;33.418;2024-02-21T09:41:21;101313.22;;;-3.13;58.02
74578;BME280;75151;49.086;33.418;2024-02-21T09:43:52;101299.41;;;-3.16;58.68
74578;BME280;75151;49.086;33.418;2024-02-21T09:46:29;101304.69;;;-3.21;57.68
74578;BME280;75151;49.086;33.418;2024-02-21T09:49:29;101302.28;;;-2.55;56.33
74578;BME280;75151;49.086;33.418;2024-02-21T09:52:00;101289.50;;;-1.98;57.41
74578;BME280;75151;49.086;33.418;2024-02-21T09:54:29;101305.41;;;-2.86;57.21
74578;BME280;75151;49.086;33.418;2024-02-21T09:57:03;101294.06;;;-3.63;58.35
74578;BME280;75151;49.086;33.418;2024-02-21T09:59:33;101299.97;;;-3.14;58.18
74578;BME280;75151;49.086;33.418;2024-02-21T10:02:00;101294.63;;;-2.58;56.85
74578;BME280;75151;49.086;33.418;2024-02-21T10:04:29;101288.09;;;-2.01;55.90
74578;BME280;75151;49.086;33.418;2024-02-21T10:06:56;101289.34;;;-2.53;57.21
74578;BME280;75151;49.086;33.418;2024-02-21T10:09:23;101288.63;;;-2.88;57.12
74578;BME280;75151;49.086;33.418;2024-02-21T10:11:56;101289.72;;;-2.61;57.71
74578;BME280;75151;49.086;33.418;2024-02-21T10:14:23;101287.78;;;-2.49;57.38
74578;BME280;75151;49.086;33.418;2024-02-21T10:16:57;101287.91;;;-2.27;57.21
74578;BME280;75151;49.086;33.418;2024-02-21T10:19:27;101284.50;;;-2.79;56.59
74578;BME280;75151;49.086;33.418;2024-02-21T10:22:12;101284.56;;;-3.02;57.28
74578;BME280;75151;49.086;33.418;2024-02-21T10:24:42;101278.56;;;-2.20;56.64
74578;BME280;75151;49.086;33.418;2024-02-21T10:27:09;101270.75;;;-2.50;56.33
74578;BME280;75151;49.086;33.418;2024-02-21T10:29:40;101270.09;;;-3.24;57.82
74578;BME280;75151;49.086;33.418;2024-02-21T10:32:13;101262.31;;;-1.54;54.46
74578;BME280;75151;49.086;33.418;2024-02-21T10:34:41;101275.25;;;-2.55;57.00
74578;BME280;75151;49.086;33.418;2024-02-21T10:37:10;101278.19;;;-2.85;56.63
74578;BME280;75151;49.086;33.418;2024-02-21T10:39:40;101276.91;;;-2.66;57.02
74578;BME280;75151;49.086;33.418;2024-02-21T10:42:10;101279.19;;;-2.46;57.21
74578;BME280;75151;49.086;33.418;2024-02-21T10:44:39;101266.19;;;-2.16;56.97
74578;BME280;75151;49.086;33.418;2024-02-21T10:47:11;101265.44;;;-2.73;58.33
74578;BME280;75151;49.086;33.418;2024-02-21T10:49:41;101271.78;;;-2.51;57.08
74578;BME280;75151;49.086;33.418;2024-02-21T10:53:09;101260.28;;;-1.80;55.53
74578;BME280;75151;49.086;33.418;2024-02-21T10:55:20;101255.94;;;-1.64;54.55
74578;BME280;75151;49.086;33.418;2024-02-21T10:57:51;101253.09;;;-1.91;55.26
74578;BME280;75151;49.086;33.418;2024-02-21T11:00:18;101260.13;;;-2.40;55.41
74578;BME280;75151;49.086;33.418;2024-02-21T11:02:46;101246.78;;;-1.41;54.33
74578;BME280;75151;49.086;33.418;2024-02-21T11:05:15;101248.91;;;-1.98;55.33
74578;BME280;75151;49.086;33.418;2024-02-21T11:07:42;101252.66;;;-2.16;55.62
74578;BME280;75151;49.086;33.418;2024-02-21T11:10:25;101247.25;;;-2.16;55.62
74578;BME280;75151;49.086;33.418;2024-02-21T11:13:05;101240.81;;;-1.77;54.81
74578;BME280;75151;49.086;33.418;2024-02-21T11:15:33;101246.78;;;-2.13;56.36
74578;BME280;75151;49.086;33.418;2024-02-21T11:18:00;101234.19;;;-1.86;54.88
74578;BME280;75151;49.086;33.418;2024-02-21T11:20:34;101243.06;;;-2.23;54.67
74578;BME280;75151;49.086;33.418;2024-02-21T11:23:02;101251.75;;;-2.38;55.68
74578;BME280;75151;49.086;33.418;2024-02-21T11:25:29;101243.66;;;-2.38;56.92
74578;BME280;75151;49.086;33.418;2024-02-21T11:28:04;101234.72;;;-2.22;55.20
74578;BME280;75151;49.086;33.418;2024-02-21T11:30:36;101236.13;;;-2.19;55.64
74578;BME280;75151;49.086;33.418;2024-02-21T11:33:07;101230.81;;;-1.60;55.07
74578;BME280;75151;49.086;33.418;2024-02-21T11:35:35;101234.63;;;-2.10;54.56
74578;BME280;75151;49.086;33.418;2024-02-21T11:38:13;101230.50;;;-1.80;53.14
74578;BME280;75151;49.086;33.418;2024-02-21T11:40:45;101226.25;;;-2.09;54.36
74578;BME280;75151;49.086;33.418;2024-02-21T11:43:12;101224.03;;;-1.40;53.56
74578;BME280;75151;49.086;33.418;2024-02-21T11:45:39;101220.44;;;-2.01;55.27
74578;BME280;75151;49.086;33.418;2024-02-21T11:48:06;101218.59;;;-1.79;54.84
74578;BME280;75151;49.086;33.418;2024-02-21T11:50:37;101222.00;;;-1.72;55.13
74578;BME280;75151;49.086;33.418;2024-02-21T11:53:05;101217.84;;;-1.58;54.07
74578;BME280;75151;49.086;33.418;2024-02-21T11:55:32;101214.44;;;-1.31;53.27
74578;BME280;75151;49.086;33.418;2024-02-21T11:58:01;101224.09;;;-1.57;53.87
74578;BME280;75151;49.086;33.418;2024-02-21T12:00:28;101221.84;;;-1.98;55.95
74578;BME280;75151;49.086;33.418;2024-02-21T12:02:55;101221.59;;;-1.64;54.26
74578;BME280;75151;49.086;33.418;2024-02-21T12:05:26;101223.34;;;-2.07;55.50
74578;BME280;75151;49.086;33.418;2024-02-21T12:07:55;101216.47;;;-1.77;55.67
74578;BME280;75151;49.086;33.418;2024-02-21T12:10:27;101223.13;;;-1.84;53.87
74578;BME280;75151;49.086;33.418;2024-02-21T12:13:05;101220.34;;;-1.73;56.25
74578;BME280;75151;49.086;33.418;2024-02-21T12:15:36;101226.88;;;-1.52;54.64
74578;BME280;75151;49.086;33.418;2024-02-21T12:18:03;101220.94;;;-1.71;54.35
74578;BME280;75151;49.086;33.418;2024-02-21T12:20:30;101221.69;;;-2.42;56.24
74578;BME280;75151;49.086;33.418;2024-02-21T12:23:01;101228.41;;;-1.39;53.94
74578;BME280;75151;49.086;33.418;2024-02-21T12:25:28;101219.09;;;-1.65;54.52
74578;BME280;75151;49.086;33.418;2024-02-21T12:27:55;101213.50;;;-2.30;57.08
74578;BME280;75151;49.086;33.418;2024-02-21T12:30:23;101228.91;;;-2.47;55.98
74578;BME280;75151;49.086;33.418;2024-02-21T12:32:49;101219.19;;;-2.60;57.73
74578;BME280;75151;49.086;33.418;2024-02-21T12:35:16;101211.50;;;-2.01;55.87
74578;BME280;75151;49.086;33.418;2024-02-21T12:37:44;101210.25;;;-1.77;56.91
74578;BME280;75151;49.086;33.418;2024-02-21T12:40:11;101214.81;;;-2.49;58.05
74578;BME280;75151;49.086;33.418;2024-02-21T12:42:41;101223.38;;;-2.52;58.47
74578;BME280;75151;49.086;33.418;2024-02-21T12:45:08;101210.81;;;-1.15;55.81
74578;BME280;75151;49.086;33.418;2024-02-21T12:47:38;101211.69;;;-2.24;56.35